This is the latest recevied weather packets stored in our database for station/object N4CRH-13. If no packets are shown the sender has not sent any weather packets the latest 10 day(s).
| Time | Temp. | Humidity | Pressure | Rain* | Wind** | Luminosity | Snow |
|---|---|---|---|---|---|---|---|
| 1777468825 | 3.89° C | 88% | 1297.8 hPa | 0 mm | - | 83 W/m² | - |
| 1777468522 | 3.33° C | 90% | 1297.6 hPa | 0 mm | - | 56 W/m² | - |
| 1777468219 | 2.78° C | 92% | 1297.6 hPa | 0 mm | - | 48 W/m² | - |
| 1777467915 | 2.22° C | 92% | 1297.5 hPa | 0 mm | - | 30 W/m² | - |
| 1777467611 | 2.22° C | 92% | 1297.8 hPa | 0 mm | - | 28 W/m² | - |
| 1777467306 | 2.22° C | 92% | 1297.8 hPa | 0 mm | - | 22 W/m² | - |
| 1777467003 | 2.22° C | 93% | 1297.8 hPa | 0 mm | - | 24 W/m² | - |
| 1777466700 | 1.67° C | 93% | 1297.6 hPa | 0 mm | - | 20 W/m² | - |
| 1777466397 | 1.67° C | 93% | 1297.4 hPa | 0 mm | - | 18 W/m² | - |
| 1777466093 | 1.67° C | 93% | 1297.4 hPa | 0 mm | - | 19 W/m² | - |
| 1777465789 | 1.67° C | 93% | 1297.4 hPa | 0 mm | - | 15 W/m² | - |
| 1777465485 | 1.67° C | 93% | 1297.5 hPa | 0 mm | - | 9 W/m² | - |
| 1777465184 | 1.67° C | 93% | 1297.6 hPa | 0 mm | - | 8 W/m² | - |
| 1777464880 | 1.11° C | 93% | 1297.6 hPa | 0 mm | - | 6 W/m² | - |
| 1777464575 | 1.11° C | 92% | 1297.8 hPa | 0 mm | - | 4 W/m² | - |
| 1777464272 | 1.67° C | 91% | 1297.9 hPa | 0 mm | - | 3 W/m² | - |
| 1777463967 | 2.22° C | 91% | 1297.8 hPa | 0 mm | - | 1 W/m² | - |
| 1777463662 | 2.22° C | 91% | 1297.6 hPa | 0 mm | - | 1 W/m² | - |
| 1777463357 | 2.78° C | 90% | 1297.5 hPa | 0 mm | - | 0 W/m² | - |
| 1777463054 | 2.78° C | 90% | 1297.5 hPa | 0 mm | - | 0 W/m² | - |
| 1777462749 | 2.22° C | 91% | 1297.5 hPa | 0 mm | - | 0 W/m² | - |
| 1777462445 | 2.78° C | 90% | 1297.3 hPa | 0 mm | - | 0 W/m² | - |
| 1777462142 | 2.78° C | 90% | 1297.4 hPa | 0 mm | - | 0 W/m² | - |
| 1777461838 | 2.78° C | 90% | 1297.4 hPa | 0 mm | - | 0 W/m² | - |
| 1777461534 | 2.78° C | 90% | 1297.1 hPa | 0 mm | - | 0 W/m² | - |
* Rain latest hour (hover to see other rain measurements)
** Current wind speed in m/s (hover to see current wind gust speed)